sensor_id;sensor_type;location;lat;lon;timestamp;P1;durP1;ratioP1;P2;durP2;ratioP2
56321;SDS011;42227;6.376;-10.782;2023-02-16T00:04:52;70.70;;;38.35;;
56321;SDS011;42227;6.376;-10.782;2023-02-16T00:07:22;71.43;;;40.67;;
56321;SDS011;42227;6.376;-10.782;2023-02-16T00:09:54;69.70;;;33.03;;
56321;SDS011;42227;6.376;-10.782;2023-02-16T00:12:31;70.03;;;35.05;;
56321;SDS011;42227;6.376;-10.782;2023-02-16T00:15:18;41.55;;;23.83;;
56321;SDS011;42227;6.376;-10.782;2023-02-16T00:17:48;50.38;;;27.65;;
56321;SDS011;42227;6.376;-10.782;2023-02-16T00:20:20;41.10;;;20.88;;
56321;SDS011;42227;6.376;-10.782;2023-02-16T00:22:48;47.10;;;21.60;;
56321;SDS011;42227;6.376;-10.782;2023-02-16T00:25:21;55.80;;;24.63;;
56321;SDS011;42227;6.376;-10.782;2023-02-16T00:27:50;62.03;;;31.95;;
56321;SDS011;42227;6.376;-10.782;2023-02-16T00:30:20;97.85;;;46.20;;
56321;SDS011;42227;6.376;-10.782;2023-02-16T00:32:48;86.07;;;44.67;;
56321;SDS011;42227;6.376;-10.782;2023-02-16T00:35:20;78.15;;;40.70;;
56321;SDS011;42227;6.376;-10.782;2023-02-16T00:37:57;83.30;;;40.90;;
56321;SDS011;42227;6.376;-10.782;2023-02-16T00:40:26;45.17;;;25.58;;
56321;SDS011;42227;6.376;-10.782;2023-02-16T00:43:15;37.88;;;19.75;;
56321;SDS011;42227;6.376;-10.782;2023-02-16T00:45:54;43.83;;;22.20;;
56321;SDS011;42227;6.376;-10.782;2023-02-16T00:48:25;47.28;;;21.20;;
56321;SDS011;42227;6.376;-10.782;2023-02-16T00:50:53;37.70;;;20.35;;
56321;SDS011;42227;6.376;-10.782;2023-02-16T00:53:29;54.30;;;23.03;;
56321;SDS011;42227;6.376;-10.782;2023-02-16T00:56:03;39.25;;;19.83;;
56321;SDS011;42227;6.376;-10.782;2023-02-16T00:58:38;39.65;;;21.42;;
56321;SDS011;42227;6.376;-10.782;2023-02-16T01:01:22;48.03;;;23.20;;
56321;SDS011;42227;6.376;-10.782;2023-02-16T01:03:54;47.47;;;25.23;;
56321;SDS011;42227;6.376;-10.782;2023-02-16T01:06:22;51.92;;;28.52;;
56321;SDS011;42227;6.376;-10.782;2023-02-16T01:08:52;48.50;;;24.73;;
56321;SDS011;42227;6.376;-10.782;2023-02-16T01:11:21;41.15;;;19.85;;
56321;SDS011;42227;6.376;-10.782;2023-02-16T01:13:50;44.92;;;20.48;;
56321;SDS011;42227;6.376;-10.782;2023-02-16T01:16:35;38.15;;;18.15;;
56321;SDS011;42227;6.376;-10.782;2023-02-16T01:19:09;41.28;;;20.75;;
56321;SDS011;42227;6.376;-10.782;2023-02-16T01:21:38;45.40;;;27.83;;
56321;SDS011;42227;6.376;-10.782;2023-02-16T01:24:07;62.03;;;27.90;;
56321;SDS011;42227;6.376;-10.782;2023-02-16T01:26:39;69.95;;;34.90;;
56321;SDS011;42227;6.376;-10.782;2023-02-16T01:29:19;52.50;;;22.67;;
56321;SDS011;42227;6.376;-10.782;2023-02-16T01:31:48;50.40;;;27.83;;
56321;SDS011;42227;6.376;-10.782;2023-02-16T01:34:17;56.53;;;26.25;;
56321;SDS011;42227;6.376;-10.782;2023-02-16T01:36:47;54.65;;;22.83;;
56321;SDS011;42227;6.376;-10.782;2023-02-16T01:39:17;63.75;;;21.77;;
56321;SDS011;42227;6.376;-10.782;2023-02-16T01:44:59;38.72;;;16.42;;
56321;SDS011;42227;6.376;-10.782;2023-02-16T01:47:42;45.15;;;18.92;;
56321;SDS011;42227;6.376;-10.782;2023-02-16T01:50:24;41.22;;;18.08;;
56321;SDS011;42227;6.376;-10.782;2023-02-16T01:52:55;33.97;;;20.08;;
56321;SDS011;42227;6.376;-10.782;2023-02-16T01:55:40;29.42;;;17.40;;
56321;SDS011;42227;6.376;-10.782;2023-02-16T01:58:33;41.22;;;16.02;;
56321;SDS011;42227;6.376;-10.782;2023-02-16T02:01:41;47.60;;;21.02;;
56321;SDS011;42227;6.376;-10.782;2023-02-16T02:04:26;52.30;;;22.67;;
56321;SDS011;42227;6.376;-10.782;2023-02-16T02:06:56;58.33;;;29.85;;
56321;SDS011;42227;6.376;-10.782;2023-02-16T02:09:29;64.10;;;32.25;;
56321;SDS011;42227;6.376;-10.782;2023-02-16T02:12:15;89.57;;;45.70;;
56321;SDS011;42227;6.376;-10.782;2023-02-16T02:15:02;81.90;;;42.35;;
56321;SDS011;42227;6.376;-10.782;2023-02-16T02:17:31;65.55;;;36.28;;
56321;SDS011;42227;6.376;-10.782;2023-02-16T02:20:11;81.22;;;37.67;;
56321;SDS011;42227;6.376;-10.782;2023-02-16T02:31:48;52.28;;;28.70;;
56321;SDS011;42227;6.376;-10.782;2023-02-16T02:34:28;56.28;;;27.98;;
56321;SDS011;42227;6.376;-10.782;2023-02-16T02:37:24;58.63;;;28.75;;
56321;SDS011;42227;6.376;-10.782;2023-02-16T02:42:45;57.22;;;26.98;;
56321;SDS011;42227;6.376;-10.782;2023-02-16T02:45:29;73.13;;;33.42;;
56321;SDS011;42227;6.376;-10.782;2023-02-16T02:48:02;75.30;;;35.10;;
56321;SDS011;42227;6.376;-10.782;2023-02-16T02:50:39;78.00;;;34.38;;
56321;SDS011;42227;6.376;-10.782;2023-02-16T02:53:20;55.90;;;30.48;;
56321;SDS011;42227;6.376;-10.782;2023-02-16T02:55:58;74.45;;;31.48;;
56321;SDS011;42227;6.376;-10.782;2023-02-16T02:58:29;48.88;;;24.88;;
56321;SDS011;42227;6.376;-10.782;2023-02-16T03:01:07;69.60;;;37.08;;
56321;SDS011;42227;6.376;-10.782;2023-02-16T03:03:41;72.35;;;31.30;;
56321;SDS011;42227;6.376;-10.782;2023-02-16T03:06:29;71.57;;;35.83;;
56321;SDS011;42227;6.376;-10.782;2023-02-16T03:09:06;96.90;;;38.90;;
56321;SDS011;42227;6.376;-10.782;2023-02-16T03:11:43;74.07;;;36.17;;
56321;SDS011;42227;6.376;-10.782;2023-02-16T03:14:20;83.88;;;38.55;;
56321;SDS011;42227;6.376;-10.782;2023-02-16T03:16:53;74.88;;;35.90;;
56321;SDS011;42227;6.376;-10.782;2023-02-16T03:19:34;70.47;;;35.72;;
56321;SDS011;42227;6.376;-10.782;2023-02-16T03:22:09;71.70;;;33.85;;
56321;SDS011;42227;6.376;-10.782;2023-02-16T03:24:38;80.38;;;38.03;;
56321;SDS011;42227;6.376;-10.782;2023-02-16T03:27:09;64.15;;;36.05;;
56321;SDS011;42227;6.376;-10.782;2023-02-16T03:29:40;85.05;;;40.42;;
56321;SDS011;42227;6.376;-10.782;2023-02-16T03:32:10;66.53;;;30.45;;
56321;SDS011;42227;6.376;-10.782;2023-02-16T03:34:38;58.05;;;28.77;;
56321;SDS011;42227;6.376;-10.782;2023-02-16T03:37:07;66.60;;;34.78;;
56321;SDS011;42227;6.376;-10.782;2023-02-16T03:39:37;58.80;;;28.70;;
56321;SDS011;42227;6.376;-10.782;2023-02-16T03:42:06;75.60;;;30.30;;
56321;SDS011;42227;6.376;-10.782;2023-02-16T03:44:42;64.80;;;27.70;;
56321;SDS011;42227;6.376;-10.782;2023-02-16T03:47:10;62.50;;;25.80;;
56321;SDS011;42227;6.376;-10.782;2023-02-16T03:49:38;51.95;;;22.63;;
56321;SDS011;42227;6.376;-10.782;2023-02-16T03:52:06;49.30;;;26.27;;
56321;SDS011;42227;6.376;-10.782;2023-02-16T03:54:35;53.72;;;23.60;;
56321;SDS011;42227;6.376;-10.782;2023-02-16T03:57:03;63.25;;;28.70;;
56321;SDS011;42227;6.376;-10.782;2023-02-16T03:59:32;50.03;;;23.52;;
56321;SDS011;42227;6.376;-10.782;2023-02-16T04:02:00;45.65;;;25.10;;
56321;SDS011;42227;6.376;-10.782;2023-02-16T04:04:28;56.10;;;25.67;;
56321;SDS011;42227;6.376;-10.782;2023-02-16T04:06:57;57.13;;;26.77;;
56321;SDS011;42227;6.376;-10.782;2023-02-16T04:09:25;55.45;;;28.17;;
56321;SDS011;42227;6.376;-10.782;2023-02-16T04:11:55;53.50;;;25.50;;
56321;SDS011;42227;6.376;-10.782;2023-02-16T04:14:23;62.75;;;26.30;;
56321;SDS011;42227;6.376;-10.782;2023-02-16T04:16:52;48.65;;;24.27;;
56321;SDS011;42227;6.376;-10.782;2023-02-16T04:19:20;54.33;;;25.52;;
56321;SDS011;42227;6.376;-10.782;2023-02-16T04:21:49;62.10;;;26.58;;
56321;SDS011;42227;6.376;-10.782;2023-02-16T04:24:17;72.88;;;28.65;;
56321;SDS011;42227;6.376;-10.782;2023-02-16T04:26:46;64.68;;;26.92;;
56321;SDS011;42227;6.376;-10.782;2023-02-16T04:29:14;69.47;;;28.77;;
56321;SDS011;42227;6.376;-10.782;2023-02-16T04:31:42;70.10;;;34.47;;
56321;SDS011;42227;6.376;-10.782;2023-02-16T04:34:11;66.10;;;34.80;;
56321;SDS011;42227;6.376;-10.782;2023-02-16T04:36:39;83.32;;;39.78;;
56321;SDS011;42227;6.376;-10.782;2023-02-16T04:39:07;109.13;;;52.03;;
56321;SDS011;42227;6.376;-10.782;2023-02-16T04:41:36;87.50;;;47.65;;
56321;SDS011;42227;6.376;-10.782;2023-02-16T04:44:04;99.57;;;46.50;;
56321;SDS011;42227;6.376;-10.782;2023-02-16T04:46:32;71.88;;;32.83;;
56321;SDS011;42227;6.376;-10.782;2023-02-16T04:49:01;81.05;;;31.08;;
56321;SDS011;42227;6.376;-10.782;2023-02-16T04:51:29;99.00;;;30.98;;
56321;SDS011;42227;6.376;-10.782;2023-02-16T04:53:57;58.03;;;27.52;;
56321;SDS011;42227;6.376;-10.782;2023-02-16T04:56:25;54.33;;;25.58;;
56321;SDS011;42227;6.376;-10.782;2023-02-16T04:58:54;61.03;;;24.70;;
56321;SDS011;42227;6.376;-10.782;2023-02-16T05:01:23;54.67;;;27.67;;
56321;SDS011;42227;6.376;-10.782;2023-02-16T05:03:53;71.85;;;27.77;;
56321;SDS011;42227;6.376;-10.782;2023-02-16T05:06:22;71.43;;;31.88;;
56321;SDS011;42227;6.376;-10.782;2023-02-16T05:08:50;86.60;;;30.23;;
56321;SDS011;42227;6.376;-10.782;2023-02-16T05:11:18;67.20;;;27.73;;
56321;SDS011;42227;6.376;-10.782;2023-02-16T05:13:47;91.07;;;34.35;;
56321;SDS011;42227;6.376;-10.782;2023-02-16T05:16:15;66.07;;;28.92;;
56321;SDS011;42227;6.376;-10.782;2023-02-16T05:18:46;69.90;;;30.90;;
56321;SDS011;42227;6.376;-10.782;2023-02-16T05:21:15;64.80;;;27.77;;
56321;SDS011;42227;6.376;-10.782;2023-02-16T05:23:43;71.22;;;27.85;;
56321;SDS011;42227;6.376;-10.782;2023-02-16T05:26:11;64.82;;;25.67;;
56321;SDS011;42227;6.376;-10.782;2023-02-16T05:28:39;52.80;;;22.33;;
56321;SDS011;42227;6.376;-10.782;2023-02-16T05:31:07;66.10;;;23.08;;
56321;SDS011;42227;6.376;-10.782;2023-02-16T05:33:36;71.38;;;26.55;;
56321;SDS011;42227;6.376;-10.782;2023-02-16T05:36:04;70.95;;;32.00;;
56321;SDS011;42227;6.376;-10.782;2023-02-16T05:38:33;76.05;;;34.20;;
56321;SDS011;42227;6.376;-10.782;2023-02-16T05:41:01;72.10;;;31.17;;
56321;SDS011;42227;6.376;-10.782;2023-02-16T05:43:31;73.90;;;30.83;;
56321;SDS011;42227;6.376;-10.782;2023-02-16T05:45:59;56.80;;;28.40;;
56321;SDS011;42227;6.376;-10.782;2023-02-16T05:48:32;66.47;;;27.73;;
56321;SDS011;42227;6.376;-10.782;2023-02-16T05:51:01;60.20;;;26.75;;
56321;SDS011;42227;6.376;-10.782;2023-02-16T05:53:30;63.65;;;25.75;;
56321;SDS011;42227;6.376;-10.782;2023-02-16T05:55:58;55.65;;;24.58;;
56321;SDS011;42227;6.376;-10.782;2023-02-16T05:58:27;69.20;;;23.83;;
56321;SDS011;42227;6.376;-10.782;2023-02-16T06:00:55;69.65;;;28.05;;
56321;SDS011;42227;6.376;-10.782;2023-02-16T06:03:23;61.20;;;28.30;;
56321;SDS011;42227;6.376;-10.782;2023-02-16T06:05:52;62.13;;;30.65;;
56321;SDS011;42227;6.376;-10.782;2023-02-16T06:08:22;76.20;;;34.75;;
56321;SDS011;42227;6.376;-10.782;2023-02-16T06:10:51;70.32;;;33.20;;
56321;SDS011;42227;6.376;-10.782;2023-02-16T06:13:31;61.72;;;32.45;;
56321;SDS011;42227;6.376;-10.782;2023-02-16T06:16:01;74.18;;;31.63;;
56321;SDS011;42227;6.376;-10.782;2023-02-16T06:18:29;63.88;;;30.90;;
56321;SDS011;42227;6.376;-10.782;2023-02-16T06:20:57;85.40;;;29.60;;
56321;SDS011;42227;6.376;-10.782;2023-02-16T06:23:37;61.67;;;34.83;;
56321;SDS011;42227;6.376;-10.782;2023-02-16T06:26:05;83.95;;;33.67;;
56321;SDS011;42227;6.376;-10.782;2023-02-16T06:28:42;74.00;;;33.95;;
56321;SDS011;42227;6.376;-10.782;2023-02-16T06:31:15;88.30;;;36.97;;
56321;SDS011;42227;6.376;-10.782;2023-02-16T06:33:48;67.72;;;32.80;;
56321;SDS011;42227;6.376;-10.782;2023-02-16T06:36:21;75.18;;;34.80;;
56321;SDS011;42227;6.376;-10.782;2023-02-16T06:38:51;75.95;;;32.20;;
56321;SDS011;42227;6.376;-10.782;2023-02-16T06:41:19;71.75;;;35.92;;
56321;SDS011;42227;6.376;-10.782;2023-02-16T06:43:51;100.70;;;42.87;;
56321;SDS011;42227;6.376;-10.782;2023-02-16T06:46:44;89.50;;;49.17;;
56321;SDS011;42227;6.376;-10.782;2023-02-16T06:49:16;74.05;;;35.97;;
56321;SDS011;42227;6.376;-10.782;2023-02-16T06:51:47;80.93;;;37.10;;
56321;SDS011;42227;6.376;-10.782;2023-02-16T06:54:16;80.07;;;37.28;;
56321;SDS011;42227;6.376;-10.782;2023-02-16T06:56:45;85.55;;;34.42;;
56321;SDS011;42227;6.376;-10.782;2023-02-16T06:59:13;78.18;;;34.90;;
56321;SDS011;42227;6.376;-10.782;2023-02-16T07:01:41;78.40;;;33.05;;
56321;SDS011;42227;6.376;-10.782;2023-02-16T07:04:11;80.70;;;30.13;;
56321;SDS011;42227;6.376;-10.782;2023-02-16T07:06:40;81.43;;;28.13;;
56321;SDS011;42227;6.376;-10.782;2023-02-16T07:09:09;69.32;;;29.17;;
56321;SDS011;42227;6.376;-10.782;2023-02-16T07:11:38;62.78;;;31.30;;
56321;SDS011;42227;6.376;-10.782;2023-02-16T07:14:07;62.13;;;29.17;;
56321;SDS011;42227;6.376;-10.782;2023-02-16T07:16:36;67.63;;;30.80;;
56321;SDS011;42227;6.376;-10.782;2023-02-16T07:19:04;59.33;;;29.38;;
56321;SDS011;42227;6.376;-10.782;2023-02-16T07:21:32;71.95;;;31.55;;
56321;SDS011;42227;6.376;-10.782;2023-02-16T07:24:01;63.83;;;31.58;;
56321;SDS011;42227;6.376;-10.782;2023-02-16T07:26:30;65.65;;;33.13;;
56321;SDS011;42227;6.376;-10.782;2023-02-16T07:28:59;81.05;;;31.83;;
56321;SDS011;42227;6.376;-10.782;2023-02-16T07:31:28;63.40;;;32.25;;
56321;SDS011;42227;6.376;-10.782;2023-02-16T07:33:56;73.75;;;30.63;;
56321;SDS011;42227;6.376;-10.782;2023-02-16T07:36:28;70.70;;;30.73;;
56321;SDS011;42227;6.376;-10.782;2023-02-16T07:39:01;69.20;;;33.47;;
56321;SDS011;42227;6.376;-10.782;2023-02-16T07:41:44;81.82;;;33.78;;
56321;SDS011;42227;6.376;-10.782;2023-02-16T07:47:22;68.30;;;34.55;;
56321;SDS011;42227;6.376;-10.782;2023-02-16T07:49:50;83.50;;;35.55;;
56321;SDS011;42227;6.376;-10.782;2023-02-16T07:52:19;83.82;;;36.40;;
56321;SDS011;42227;6.376;-10.782;2023-02-16T07:54:54;78.95;;;34.55;;
56321;SDS011;42227;6.376;-10.782;2023-02-16T07:57:31;71.50;;;33.97;;
56321;SDS011;42227;6.376;-10.782;2023-02-16T08:02:39;61.42;;;30.02;;
56321;SDS011;42227;6.376;-10.782;2023-02-16T08:05:07;62.58;;;32.08;;
56321;SDS011;42227;6.376;-10.782;2023-02-16T08:07:35;53.85;;;26.80;;
56321;SDS011;42227;6.376;-10.782;2023-02-16T08:10:04;73.70;;;28.95;;
56321;SDS011;42227;6.376;-10.782;2023-02-16T08:12:33;53.67;;;30.38;;
56321;SDS011;42227;6.376;-10.782;2023-02-16T08:15:01;69.50;;;33.60;;
56321;SDS011;42227;6.376;-10.782;2023-02-16T08:17:30;53.30;;;29.08;;
56321;SDS011;42227;6.376;-10.782;2023-02-16T08:19:58;83.38;;;32.38;;
56321;SDS011;42227;6.376;-10.782;2023-02-16T08:22:27;60.88;;;28.52;;
56321;SDS011;42227;6.376;-10.782;2023-02-16T08:24:55;63.10;;;31.63;;
56321;SDS011;42227;6.376;-10.782;2023-02-16T08:27:23;66.80;;;34.42;;
56321;SDS011;42227;6.376;-10.782;2023-02-16T08:29:52;68.70;;;31.13;;
56321;SDS011;42227;6.376;-10.782;2023-02-16T08:32:20;66.38;;;29.40;;
56321;SDS011;42227;6.376;-10.782;2023-02-16T08:34:49;59.03;;;27.67;;
56321;SDS011;42227;6.376;-10.782;2023-02-16T08:37:17;69.28;;;26.08;;
56321;SDS011;42227;6.376;-10.782;2023-02-16T08:39:45;82.47;;;28.98;;
56321;SDS011;42227;6.376;-10.782;2023-02-16T08:42:13;75.50;;;29.35;;
56321;SDS011;42227;6.376;-10.782;2023-02-16T08:44:42;53.85;;;21.63;;
56321;SDS011;42227;6.376;-10.782;2023-02-16T08:47:10;61.60;;;24.23;;
56321;SDS011;42227;6.376;-10.782;2023-02-16T08:49:40;62.20;;;24.42;;
56321;SDS011;42227;6.376;-10.782;2023-02-16T08:52:08;49.72;;;20.15;;
56321;SDS011;42227;6.376;-10.782;2023-02-16T08:54:36;64.30;;;21.75;;
56321;SDS011;42227;6.376;-10.782;2023-02-16T08:57:06;42.67;;;19.05;;
56321;SDS011;42227;6.376;-10.782;2023-02-16T08:59:34;52.30;;;19.50;;
56321;SDS011;42227;6.376;-10.782;2023-02-16T09:02:02;64.50;;;29.60;;
56321;SDS011;42227;6.376;-10.782;2023-02-16T09:04:31;79.05;;;35.08;;
56321;SDS011;42227;6.376;-10.782;2023-02-16T09:06:59;74.18;;;35.92;;
56321;SDS011;42227;6.376;-10.782;2023-02-16T09:09:27;61.78;;;34.22;;
56321;SDS011;42227;6.376;-10.782;2023-02-16T09:11:56;42.78;;;21.95;;
56321;SDS011;42227;6.376;-10.782;2023-02-16T09:14:24;55.60;;;21.80;;
56321;SDS011;42227;6.376;-10.782;2023-02-16T09:16:52;45.75;;;21.35;;
56321;SDS011;42227;6.376;-10.782;2023-02-16T09:19:20;85.68;;;37.85;;
56321;SDS011;42227;6.376;-10.782;2023-02-16T09:21:49;51.58;;;22.45;;
56321;SDS011;42227;6.376;-10.782;2023-02-16T09:24:17;61.13;;;30.63;;
56321;SDS011;42227;6.376;-10.782;2023-02-16T09:26:46;68.40;;;27.75;;
56321;SDS011;42227;6.376;-10.782;2023-02-16T09:29:14;58.63;;;21.73;;
56321;SDS011;42227;6.376;-10.782;2023-02-16T09:31:42;85.47;;;38.58;;
56321;SDS011;42227;6.376;-10.782;2023-02-16T09:34:17;42.83;;;21.55;;
56321;SDS011;42227;6.376;-10.782;2023-02-16T09:36:47;56.28;;;20.35;;
56321;SDS011;42227;6.376;-10.782;2023-02-16T09:39:16;50.95;;;19.38;;
56321;SDS011;42227;6.376;-10.782;2023-02-16T09:47:42;88.90;;;46.08;;
56321;SDS011;42227;6.376;-10.782;2023-02-16T09:50:20;73.22;;;34.28;;
56321;SDS011;42227;6.376;-10.782;2023-02-16T09:56:44;43.88;;;19.38;;
56321;SDS011;42227;6.376;-10.782;2023-02-16T10:02:32;56.55;;;27.15;;
56321;SDS011;42227;6.376;-10.782;2023-02-16T10:05:17;39.00;;;18.58;;
56321;SDS011;42227;6.376;-10.782;2023-02-16T10:13:39;63.58;;;26.00;;
56321;SDS011;42227;6.376;-10.782;2023-02-16T10:16:17;38.13;;;18.65;;
56321;SDS011;42227;6.376;-10.782;2023-02-16T10:18:49;52.38;;;14.65;;
56321;SDS011;42227;6.376;-10.782;2023-02-16T10:21:23;45.85;;;19.80;;
56321;SDS011;42227;6.376;-10.782;2023-02-16T10:23:55;48.20;;;17.95;;
56321;SDS011;42227;6.376;-10.782;2023-02-16T10:29:07;52.80;;;17.65;;
56321;SDS011;42227;6.376;-10.782;2023-02-16T10:31:46;44.13;;;16.48;;
56321;SDS011;42227;6.376;-10.782;2023-02-16T10:37:24;33.15;;;15.63;;
56321;SDS011;42227;6.376;-10.782;2023-02-16T10:40:08;35.72;;;17.35;;
56321;SDS011;42227;6.376;-10.782;2023-02-16T10:42:51;46.83;;;15.75;;
56321;SDS011;42227;6.376;-10.782;2023-02-16T10:45:49;47.80;;;17.63;;
56321;SDS011;42227;6.376;-10.782;2023-02-16T10:48:23;39.75;;;14.60;;
56321;SDS011;42227;6.376;-10.782;2023-02-16T10:50:56;48.40;;;18.45;;
56321;SDS011;42227;6.376;-10.782;2023-02-16T10:55:58;37.25;;;18.75;;
56321;SDS011;42227;6.376;-10.782;2023-02-16T10:58:36;37.65;;;15.95;;
56321;SDS011;42227;6.376;-10.782;2023-02-16T11:01:12;35.08;;;15.13;;
56321;SDS011;42227;6.376;-10.782;2023-02-16T11:09:44;47.35;;;16.92;;
56321;SDS011;42227;6.376;-10.782;2023-02-16T11:15:05;45.10;;;16.90;;
56321;SDS011;42227;6.376;-10.782;2023-02-16T11:17:54;33.78;;;16.42;;
56321;SDS011;42227;6.376;-10.782;2023-02-16T11:26:31;47.28;;;20.50;;
56321;SDS011;42227;6.376;-10.782;2023-02-16T11:28:47;45.88;;;18.65;;
56321;SDS011;42227;6.376;-10.782;2023-02-16T11:37:11;57.45;;;20.92;;
56321;SDS011;42227;6.376;-10.782;2023-02-16T11:39:49;35.92;;;15.40;;
56321;SDS011;42227;6.376;-10.782;2023-02-16T11:44:58;34.08;;;15.55;;
56321;SDS011;42227;6.376;-10.782;2023-02-16T11:47:32;58.53;;;21.27;;
56321;SDS011;42227;6.376;-10.782;2023-02-16T11:52:46;36.60;;;16.85;;
56321;SDS011;42227;6.376;-10.782;2023-02-16T11:55:24;41.58;;;16.95;;
56321;SDS011;42227;6.376;-10.782;2023-02-16T11:57:55;46.28;;;17.48;;
56321;SDS011;42227;6.376;-10.782;2023-02-16T12:06:42;40.03;;;16.67;;
56321;SDS011;42227;6.376;-10.782;2023-02-16T12:09:37;47.60;;;17.90;;
56321;SDS011;42227;6.376;-10.782;2023-02-16T12:15:01;47.75;;;17.48;;
56321;SDS011;42227;6.376;-10.782;2023-02-16T12:23:53;46.75;;;19.50;;
56321;SDS011;42227;6.376;-10.782;2023-02-16T12:26:39;49.22;;;20.30;;
56321;SDS011;42227;6.376;-10.782;2023-02-16T12:51:21;35.40;;;13.50;;
56321;SDS011;42227;6.376;-10.782;2023-02-16T12:55:00;42.53;;;18.20;;
56321;SDS011;42227;6.376;-10.782;2023-02-16T12:57:23;44.65;;;18.20;;
56321;SDS011;42227;6.376;-10.782;2023-02-16T13:00:04;37.45;;;15.82;;
56321;SDS011;42227;6.376;-10.782;2023-02-16T13:02:46;35.25;;;14.10;;
56321;SDS011;42227;6.376;-10.782;2023-02-16T13:05:36;40.72;;;17.58;;
56321;SDS011;42227;6.376;-10.782;2023-02-16T13:11:01;29.80;;;14.32;;
56321;SDS011;42227;6.376;-10.782;2023-02-16T13:13:35;51.28;;;18.42;;
56321;SDS011;42227;6.376;-10.782;2023-02-16T13:16:05;45.33;;;16.77;;
56321;SDS011;42227;6.376;-10.782;2023-02-16T13:18:56;52.80;;;19.00;;
56321;SDS011;42227;6.376;-10.782;2023-02-16T13:24:31;49.83;;;16.92;;
56321;SDS011;42227;6.376;-10.782;2023-02-16T13:30:31;48.05;;;19.65;;
56321;SDS011;42227;6.376;-10.782;2023-02-16T13:33:53;59.13;;;21.17;;
56321;SDS011;42227;6.376;-10.782;2023-02-16T13:45:09;53.50;;;22.75;;
56321;SDS011;42227;6.376;-10.782;2023-02-16T13:47:41;35.15;;;17.77;;
56321;SDS011;42227;6.376;-10.782;2023-02-16T13:50:31;40.35;;;18.58;;
56321;SDS011;42227;6.376;-10.782;2023-02-16T13:53:10;33.35;;;14.45;;
56321;SDS011;42227;6.376;-10.782;2023-02-16T13:55:45;51.20;;;19.50;;
56321;SDS011;42227;6.376;-10.782;2023-02-16T14:00:46;56.35;;;22.02;;
56321;SDS011;42227;6.376;-10.782;2023-02-16T14:05:45;41.88;;;18.58;;
56321;SDS011;42227;6.376;-10.782;2023-02-16T14:08:23;43.22;;;21.63;;
56321;SDS011;42227;6.376;-10.782;2023-02-16T14:13:49;68.45;;;21.63;;
56321;SDS011;42227;6.376;-10.782;2023-02-16T14:18:58;67.90;;;21.77;;
56321;SDS011;42227;6.376;-10.782;2023-02-16T14:24:12;47.30;;;18.05;;
56321;SDS011;42227;6.376;-10.782;2023-02-16T14:37:30;57.22;;;22.63;;
56321;SDS011;42227;6.376;-10.782;2023-02-16T14:40:48;57.05;;;20.88;;
56321;SDS011;42227;6.376;-10.782;2023-02-16T14:43:04;54.60;;;18.70;;
56321;SDS011;42227;6.376;-10.782;2023-02-16T14:46:00;51.50;;;15.98;;
56321;SDS011;42227;6.376;-10.782;2023-02-16T14:54:39;42.10;;;19.20;;
56321;SDS011;42227;6.376;-10.782;2023-02-16T15:00:49;63.95;;;20.45;;
56321;SDS011;42227;6.376;-10.782;2023-02-16T15:03:25;46.83;;;19.05;;
56321;SDS011;42227;6.376;-10.782;2023-02-16T15:06:16;30.80;;;16.58;;
56321;SDS011;42227;6.376;-10.782;2023-02-16T15:08:58;54.30;;;18.02;;
56321;SDS011;42227;6.376;-10.782;2023-02-16T15:11:30;51.67;;;18.33;;
56321;SDS011;42227;6.376;-10.782;2023-02-16T15:14:09;47.40;;;19.13;;
56321;SDS011;42227;6.376;-10.782;2023-02-16T15:16:42;35.22;;;18.17;;
56321;SDS011;42227;6.376;-10.782;2023-02-16T15:19:14;59.30;;;18.25;;
56321;SDS011;42227;6.376;-10.782;2023-02-16T15:22:06;55.28;;;18.50;;
56321;SDS011;42227;6.376;-10.782;2023-02-16T15:24:35;41.35;;;18.55;;
56321;SDS011;42227;6.376;-10.782;2023-02-16T15:27:04;44.42;;;18.42;;
56321;SDS011;42227;6.376;-10.782;2023-02-16T15:29:32;47.55;;;17.98;;
56321;SDS011;42227;6.376;-10.782;2023-02-16T15:32:00;55.05;;;20.90;;
56321;SDS011;42227;6.376;-10.782;2023-02-16T15:34:33;58.30;;;18.00;;
56321;SDS011;42227;6.376;-10.782;2023-02-16T15:37:18;36.47;;;17.60;;
56321;SDS011;42227;6.376;-10.782;2023-02-16T15:40:09;51.17;;;19.70;;
56321;SDS011;42227;6.376;-10.782;2023-02-16T15:42:59;48.75;;;20.60;;
56321;SDS011;42227;6.376;-10.782;2023-02-16T15:45:37;48.15;;;18.88;;
56321;SDS011;42227;6.376;-10.782;2023-02-16T15:50:56;56.17;;;20.90;;
56321;SDS011;42227;6.376;-10.782;2023-02-16T15:53:53;50.03;;;21.25;;
56321;SDS011;42227;6.376;-10.782;2023-02-16T16:04:50;59.00;;;20.70;;
56321;SDS011;42227;6.376;-10.782;2023-02-16T16:07:25;59.45;;;20.83;;
56321;SDS011;42227;6.376;-10.782;2023-02-16T16:09:56;42.80;;;18.90;;
56321;SDS011;42227;6.376;-10.782;2023-02-16T16:12:26;46.42;;;20.60;;
56321;SDS011;42227;6.376;-10.782;2023-02-16T16:14:58;53.83;;;21.38;;
56321;SDS011;42227;6.376;-10.782;2023-02-16T16:17:32;44.97;;;19.40;;
56321;SDS011;42227;6.376;-10.782;2023-02-16T16:23:27;56.15;;;21.27;;
56321;SDS011;42227;6.376;-10.782;2023-02-16T16:25:54;55.50;;;20.55;;
56321;SDS011;42227;6.376;-10.782;2023-02-16T16:42:17;61.92;;;25.17;;
56321;SDS011;42227;6.376;-10.782;2023-02-16T16:44:54;61.40;;;24.58;;
56321;SDS011;42227;6.376;-10.782;2023-02-16T16:52:40;52.05;;;18.55;;
56321;SDS011;42227;6.376;-10.782;2023-02-16T16:57:48;50.63;;;21.33;;
56321;SDS011;42227;6.376;-10.782;2023-02-16T17:00:19;51.45;;;22.02;;
56321;SDS011;42227;6.376;-10.782;2023-02-16T17:02:49;46.50;;;22.00;;
56321;SDS011;42227;6.376;-10.782;2023-02-16T17:05:17;70.85;;;25.50;;
56321;SDS011;42227;6.376;-10.782;2023-02-16T17:07:46;52.38;;;20.58;;
56321;SDS011;42227;6.376;-10.782;2023-02-16T17:10:15;40.85;;;20.10;;
56321;SDS011;42227;6.376;-10.782;2023-02-16T17:12:46;52.30;;;18.55;;
56321;SDS011;42227;6.376;-10.782;2023-02-16T17:15:41;42.85;;;18.77;;
56321;SDS011;42227;6.376;-10.782;2023-02-16T17:18:13;47.70;;;18.90;;
56321;SDS011;42227;6.376;-10.782;2023-02-16T17:20:43;42.72;;;22.98;;
56321;SDS011;42227;6.376;-10.782;2023-02-16T17:23:13;50.53;;;21.95;;
56321;SDS011;42227;6.376;-10.782;2023-02-16T17:25:43;38.88;;;16.85;;
56321;SDS011;42227;6.376;-10.782;2023-02-16T17:28:12;34.38;;;17.33;;
56321;SDS011;42227;6.376;-10.782;2023-02-16T17:30:42;37.05;;;17.67;;
56321;SDS011;42227;6.376;-10.782;2023-02-16T17:33:10;57.13;;;21.65;;
56321;SDS011;42227;6.376;-10.782;2023-02-16T17:35:39;54.33;;;23.25;;
56321;SDS011;42227;6.376;-10.782;2023-02-16T17:38:11;51.80;;;18.65;;
56321;SDS011;42227;6.376;-10.782;2023-02-16T17:40:47;38.65;;;19.13;;
56321;SDS011;42227;6.376;-10.782;2023-02-16T17:43:16;55.13;;;21.30;;
56321;SDS011;42227;6.376;-10.782;2023-02-16T17:45:51;62.67;;;24.38;;
56321;SDS011;42227;6.376;-10.782;2023-02-16T17:48:21;47.33;;;27.48;;
56321;SDS011;42227;6.376;-10.782;2023-02-16T17:50:54;41.17;;;24.80;;
56321;SDS011;42227;6.376;-10.782;2023-02-16T17:53:23;41.60;;;23.88;;
56321;SDS011;42227;6.376;-10.782;2023-02-16T17:55:53;64.78;;;26.13;;
56321;SDS011;42227;6.376;-10.782;2023-02-16T17:58:24;37.55;;;23.45;;
56321;SDS011;42227;6.376;-10.782;2023-02-16T18:00:52;47.17;;;30.13;;
56321;SDS011;42227;6.376;-10.782;2023-02-16T18:03:21;67.68;;;37.78;;
56321;SDS011;42227;6.376;-10.782;2023-02-16T18:05:49;40.75;;;35.55;;